Time;durP1;ratioP1;P1;durP2;ratioP2;P2;SDS_P1;SDS_P2;PMS_P1;PMS_P2;Temp;Humidity;BMP_temperature;BMP_pressure;BME280_temperature;BME280_humidity;BME280_pressure;Samples;Min_cycle;Max_cycle;Signal;HPM_P1;HPM_P2
2022/08/08 00:01:41;;;;;;;9.40;5.00;;;29.90;94.70;;;;;;5077237;28;20049;-72
2022/08/08 00:04:23;;;;;;;12.45;5.68;;;29.80;94.80;;;;;;5074598;28;20059;-72
2022/08/08 00:07:03;;;;;;;13.85;5.18;;;29.80;95.00;;;;;;5074513;28;20040;-72
2022/08/08 00:09:51;;;;;;;8.45;4.88;;;29.80;95.10;;;;;;5074366;28;20033;-72
2022/08/08 00:12:26;;;;;;;12.07;5.20;;;29.80;95.10;;;;;;5090113;28;20056;-73
2022/08/08 00:15:02;;;;;;;10.90;4.57;;;29.80;95.10;;;;;;5073414;28;20143;-72
2022/08/08 00:17:32;;;;;;;10.05;4.68;;;29.80;95.00;;;;;;5073425;28;20055;-72
2022/08/08 00:20:06;;;;;;;9.85;4.90;;;29.80;94.90;;;;;;5074233;28;20055;-72
2022/08/08 00:22:49;;;;;;;14.27;5.53;;;29.80;95.00;;;;;;5107222;28;20045;-73
2022/08/08 00:25:52;;;;;;;6.95;5.18;;;29.70;95.00;;;;;;5056651;28;20048;-72
2022/08/08 00:28:26;;;;;;;7.10;4.32;;;29.70;95.00;;;;;;5074125;28;20079;-72
2022/08/08 00:30:56;;;;;;;10.18;4.88;;;29.70;95.10;;;;;;5072948;28;20156;-72
2022/08/08 00:33:29;;;;;;;10.05;4.70;;;29.70;95.10;;;;;;5072905;28;20135;-72
2022/08/08 00:36:00;;;;;;;9.55;5.03;;;29.70;95.20;;;;;;5056132;28;20052;-71
2022/08/08 00:38:43;;;;;;;13.73;4.78;;;29.70;95.20;;;;;;5072742;28;20466;-71
2022/08/08 00:41:29;;;;;;;13.40;4.88;;;29.70;95.10;;;;;;5072814;28;20037;-72
2022/08/08 00:44:32;;;;;;;17.90;5.38;;;29.70;95.10;;;;;;5106610;28;20162;-72
2022/08/08 00:47:31;;;;;;;12.15;4.72;;;29.70;95.20;;;;;;5091445;28;20140;-72
2022/08/08 00:50:17;;;;;;;11.95;5.10;;;29.60;95.30;;;;;;5073106;28;20487;-72
2022/08/08 00:52:57;;;;;;;;;;;29.60;95.40;;;;;;5089962;28;20368;-71
2022/08/08 00:55:43;;;;;;;8.20;4.95;;;29.60;95.50;;;;;;5055692;28;19985;-72
2022/08/08 00:58:23;;;;;;;7.55;4.78;;;29.60;95.60;;;;;;5106530;28;20531;-72
2022/08/08 01:01:15;;;;;;;6.63;4.15;;;29.60;95.70;;;;;;5106399;28;20035;-72
2022/08/08 01:04:12;;;;;;;10.43;4.43;;;29.60;95.60;;;;;;5089423;28;20565;-71
2022/08/08 01:07:38;;;;;;;12.90;5.30;;;29.60;95.60;;;;;;5106035;28;20067;-72
2022/08/08 01:10:44;;;;;;;7.40;4.53;;;29.60;95.70;;;;;;5115485;27;20047;-71
2022/08/08 01:13:34;;;;;;;8.65;4.53;;;29.50;95.60;;;;;;5115401;27;20055;-71
2022/08/08 01:16:23;;;;;;;8.23;4.93;;;29.50;95.60;;;;;;5059298;28;20124;-72
2022/08/08 01:18:53;;;;;;;9.88;4.55;;;29.50;95.60;;;;;;5072067;28;20379;-72
2022/08/08 01:21:50;;;;;;;13.07;5.72;;;29.50;95.70;;;;;;5089658;28;20041;-71
2022/08/08 01:24:56;;;;;;;8.50;4.35;;;29.50;95.70;;;;;;5088743;28;20071;-72
2022/08/08 01:27:26;;;;;;;11.00;4.53;;;29.50;95.70;;;;;;5089024;28;20045;-72
2022/08/08 01:30:21;;;;;;;8.63;5.10;;;29.50;95.70;;;;;;5072123;28;20055;-72
2022/08/08 01:33:03;;;;;;;10.10;4.95;;;29.50;95.70;;;;;;5071830;28;20560;-71
2022/08/08 01:35:37;;;;;;;8.80;5.25;;;29.50;95.80;;;;;;5089153;28;20544;-72
2022/08/08 01:38:17;;;;;;;7.95;4.75;;;29.50;95.80;;;;;;5071543;28;20055;-71
2022/08/08 01:41:22;;;;;;;9.02;4.80;;;29.40;95.90;;;;;;5073220;28;20058;-71
2022/08/08 01:44:05;;;;;;;8.15;4.32;;;29.40;95.90;;;;;;5072011;28;20397;-72
2022/08/08 01:46:40;;;;;;;12.57;4.63;;;29.50;96.00;;;;;;5105892;28;20399;-72
2022/08/08 01:49:57;;;;;;;17.13;5.65;;;29.40;96.10;;;;;;5088152;28;20405;-71
2022/08/08 01:52:37;;;;;;;13.48;5.05;;;29.40;96.20;;;;;;5076210;28;20048;-72
2022/08/08 01:55:14;;;;;;;9.18;4.85;;;29.40;96.50;;;;;;5105970;28;20043;-72
2022/08/08 01:58:05;;;;;;;9.05;5.93;;;29.40;96.30;;;;;;5088636;28;20522;-72
2022/08/08 02:00:54;;;;;;;8.75;5.05;;;29.40;96.40;;;;;;5092690;28;20044;-72
2022/08/08 02:03:54;;;;;;;9.02;4.95;;;29.40;96.40;;;;;;5093036;28;20048;-72
2022/08/08 02:06:56;;;;;;;13.70;7.03;;;29.40;96.40;;;;;;5092168;28;20040;-72
2022/08/08 02:09:51;;;;;;;9.05;4.88;;;29.40;96.30;;;;;;5091882;28;20036;-71
2022/08/08 02:12:42;;;;;;;11.07;5.60;;;29.40;96.40;;;;;;5092246;28;20040;-71
2022/08/08 02:15:37;;;;;;;10.70;5.65;;;29.50;96.50;;;;;;5081061;28;20048;-72
2022/08/08 02:18:23;;;;;;;12.93;5.30;;;29.50;96.60;;;;;;5092120;28;20478;-72
2022/08/08 02:24:17;;;;;;;7.78;5.15;;;29.50;96.90;;;;;;5075224;28;20045;-72
2022/08/08 02:27:13;;;;;;;12.85;5.88;;;29.50;97.00;;;;;;5092372;28;20052;-72
2022/08/08 02:29:46;;;;;;;11.40;6.30;;;29.50;97.10;;;;;;5075208;28;20044;-72
2022/08/08 02:32:29;;;;;;;12.20;6.07;;;29.40;97.20;;;;;;5075295;28;20532;-71
2022/08/08 02:35:18;;;;;;;10.27;5.65;;;29.40;97.30;;;;;;5075134;28;20048;-72
2022/08/08 02:38:27;;;;;;;14.70;6.40;;;29.40;97.50;;;;;;5074128;28;20139;-71
2022/08/08 02:41:18;;;;;;;15.90;6.95;;;29.40;97.60;;;;;;5058589;28;20080;-72
2022/08/08 02:44:04;;;;;;;12.40;6.43;;;29.30;97.60;;;;;;5058208;28;20044;-72
2022/08/08 02:46:52;;;;;;;10.23;6.25;;;29.30;97.60;;;;;;5076170;28;20047;-71
2022/08/08 02:49:24;;;;;;;10.13;7.10;;;29.30;97.50;;;;;;5075004;28;20514;-72
2022/08/08 02:51:57;;;;;;;11.13;6.63;;;29.20;97.50;;;;;;5091597;28;20086;-72
2022/08/08 02:54:40;;;;;;;10.82;6.43;;;29.30;97.60;;;;;;5108609;28;20040;-72
2022/08/08 02:57:23;;;;;;;15.77;6.90;;;29.20;97.50;;;;;;5091670;28;20437;-72
2022/08/08 03:00:16;;;;;;;14.48;7.70;;;29.20;97.50;;;;;;5074645;28;20075;-72
2022/08/08 03:03:25;;;;;;;13.15;8.20;;;29.20;97.50;;;;;;5073698;28;20057;-72
2022/08/08 03:06:18;;;;;;;11.57;7.38;;;29.00;97.50;;;;;;5074565;28;20098;-72
2022/08/08 03:09:08;;;;;;;13.07;7.45;;;28.90;97.60;;;;;;5073746;28;20051;-72
2022/08/08 03:12:02;;;;;;;11.32;7.15;;;28.90;97.60;;;;;;5074580;28;20041;-72
2022/08/08 03:14:36;;;;;;;13.23;7.55;;;28.90;97.80;;;;;;5091041;28;20106;-71
2022/08/08 03:17:22;;;;;;;13.48;8.55;;;28.80;97.80;;;;;;5091066;28;20386;-72
2022/08/08 03:20:05;;;;;;;14.23;7.97;;;28.80;97.90;;;;;;5074336;28;20093;-71
2022/08/08 03:22:49;;;;;;;22.65;9.32;;;28.70;97.90;;;;;;5073791;28;20079;-72
2022/08/08 03:25:25;;;;;;;13.57;7.82;;;28.70;98.00;;;;;;5107340;28;20471;-72
2022/08/08 03:27:58;;;;;;;13.43;8.60;;;28.70;98.00;;;;;;5107983;28;20105;-71
2022/08/08 03:30:30;;;;;;;9.68;7.93;;;28.60;97.80;;;;;;5091862;28;20555;-71
2022/08/08 03:33:17;;;;;;;13.68;7.68;;;28.60;97.90;;;;;;5073959;28;20136;-72
2022/08/08 03:35:50;;;;;;;12.30;7.93;;;28.50;97.80;;;;;;5090771;28;20059;-72
2022/08/08 03:38:21;;;;;;;10.70;8.00;;;28.50;97.80;;;;;;5074468;28;20115;-73
2022/08/08 03:40:52;;;;;;;14.30;7.30;;;28.50;97.80;;;;;;5090316;28;20079;-72
2022/08/08 03:43:23;;;;;;;11.32;8.07;;;28.50;97.80;;;;;;5107848;28;20098;-72
2022/08/08 03:45:56;;;;;;;12.40;8.35;;;28.50;97.80;;;;;;5057389;28;20048;-72
2022/08/08 03:48:24;;;;;;;11.15;7.90;;;28.50;97.80;;;;;;5107284;28;20032;-72
2022/08/08 03:50:52;;;;;;;14.65;7.85;;;28.50;97.80;;;;;;5073489;28;20401;-72
2022/08/08 03:53:20;;;;;;;11.13;7.30;;;28.50;97.80;;;;;;5073599;28;20123;-72
2022/08/08 03:55:49;;;;;;;13.23;7.30;;;28.60;97.70;;;;;;5107456;28;20454;-72
2022/08/08 03:58:21;;;;;;;12.70;7.90;;;28.60;97.70;;;;;;5074112;28;20040;-72
2022/08/08 04:01:19;;;;;;;14.25;8.07;;;28.60;97.80;;;;;;5060669;28;20082;-72
2022/08/08 04:03:48;;;;;;;13.20;8.05;;;28.50;97.80;;;;;;5073067;28;20045;-72
2022/08/08 04:06:16;;;;;;;17.58;7.43;;;28.50;97.90;;;;;;5090225;28;20062;-72
2022/08/08 04:08:45;;;;;;;14.38;7.72;;;28.50;97.90;;;;;;5056854;28;20063;-72
2022/08/08 04:11:18;;;;;;;15.15;8.35;;;28.50;98.10;;;;;;5072027;28;20528;-72
2022/08/08 04:13:46;;;;;;;13.27;8.10;;;28.50;98.20;;;;;;5073153;28;20040;-72
2022/08/08 04:16:14;;;;;;;13.65;8.15;;;28.50;98.10;;;;;;5107092;28;20044;-72
2022/08/08 04:18:43;;;;;;;14.27;7.85;;;28.50;98.00;;;;;;5089545;28;20036;-72
2022/08/08 04:21:13;;;;;;;12.57;7.85;;;28.60;98.00;;;;;;5072464;28;20091;-72
2022/08/08 04:23:42;;;;;;;17.45;8.52;;;28.60;97.90;;;;;;5089564;28;20087;-72
2022/08/08 04:26:10;;;;;;;11.40;7.53;;;28.60;97.80;;;;;;5056525;28;20060;-72
2022/08/08 04:28:38;;;;;;;17.13;8.93;;;28.60;97.80;;;;;;5072854;28;20505;-73
2022/08/08 04:31:05;;;;;;;15.27;8.65;;;28.60;97.80;;;;;;5072965;28;20071;-74
2022/08/08 04:33:34;;;;;;;12.00;7.78;;;28.60;97.90;;;;;;5089590;28;20039;-73
2022/08/08 04:36:01;;;;;;;14.32;8.57;;;28.60;97.90;;;;;;5106592;28;20040;-73
2022/08/08 04:38:29;;;;;;;12.43;8.82;;;28.60;97.90;;;;;;5089749;28;20045;-73
2022/08/08 04:40:58;;;;;;;23.80;10.05;;;28.60;97.80;;;;;;5090271;28;20045;-72
2022/08/08 04:43:27;;;;;;;28.30;11.63;;;28.60;97.80;;;;;;5073799;28;20044;-73
2022/08/08 04:45:55;;;;;;;15.63;8.80;;;28.60;97.70;;;;;;5072709;28;20131;-73
2022/08/08 04:48:23;;;;;;;18.23;8.98;;;28.60;97.70;;;;;;5106424;28;20040;-74
2022/08/08 04:50:51;;;;;;;12.18;8.38;;;28.70;97.70;;;;;;5072330;28;20044;-74
2022/08/08 04:53:27;;;;;;;15.25;9.20;;;28.70;97.60;;;;;;5072725;28;20041;-73
2022/08/08 04:55:57;;;;;;;18.63;7.90;;;28.70;97.50;;;;;;5106307;28;20072;-74
2022/08/08 04:58:28;;;;;;;17.70;8.10;;;28.70;97.50;;;;;;5088715;28;20135;-73
2022/08/08 05:00:56;;;;;;;17.08;9.35;;;28.70;97.40;;;;;;5072126;28;20052;-73
2022/08/08 05:03:25;;;;;;;15.75;8.23;;;28.70;97.30;;;;;;5072419;28;20111;-73
2022/08/08 05:05:53;;;;;;;15.60;8.38;;;28.70;97.30;;;;;;5106058;28;20482;-73
2022/08/08 05:08:24;;;;;;;19.05;9.15;;;28.70;97.60;;;;;;5088861;28;20064;-72
2022/08/08 05:10:53;;;;;;;16.60;9.70;;;28.70;97.30;;;;;;5055929;28;20052;-73
2022/08/08 05:13:20;;;;;;;13.75;8.45;;;28.80;97.30;;;;;;5106432;28;20082;-73
2022/08/08 05:15:48;;;;;;;15.27;9.10;;;28.80;97.50;;;;;;5106087;28;20090;-73
2022/08/08 05:18:15;;;;;;;18.10;8.40;;;28.80;97.40;;;;;;5072529;28;20398;-73
2022/08/08 05:20:44;;;;;;;24.10;9.38;;;28.80;97.50;;;;;;5072291;28;20505;-74
2022/08/08 05:23:12;;;;;;;19.75;9.05;;;28.80;97.40;;;;;;5073540;28;20048;-73
2022/08/08 05:25:41;;;;;;;14.32;8.48;;;28.80;97.40;;;;;;5072096;28;20554;-73
2022/08/08 05:28:09;;;;;;;13.30;9.70;;;28.90;97.40;;;;;;5105939;28;20075;-73
2022/08/08 05:30:37;;;;;;;11.15;8.10;;;28.90;97.30;;;;;;5072148;28;20090;-73
2022/08/08 05:33:05;;;;;;;13.63;8.32;;;28.90;97.50;;;;;;5074816;28;20090;-73
2022/08/08 05:35:34;;;;;;;15.50;9.10;;;28.90;97.20;;;;;;5110223;28;20068;-73
2022/08/08 05:38:06;;;;;;;11.25;7.70;;;28.90;97.20;;;;;;5076166;28;20055;-73
2022/08/08 05:40:48;;;;;;;12.68;9.55;;;29.00;97.20;;;;;;5091901;28;20573;-73
2022/08/08 05:43:25;;;;;;;17.55;10.82;;;29.10;97.10;;;;;;5076131;28;20396;-73
2022/08/08 05:46:02;;;;;;;13.15;8.90;;;29.10;96.90;;;;;;5076316;28;20078;-73
2022/08/08 05:48:33;;;;;;;12.25;8.75;;;29.20;96.90;;;;;;5076209;28;20072;-74
2022/08/08 05:51:02;;;;;;;12.25;9.13;;;29.20;96.80;;;;;;5092485;28;20048;-73
2022/08/08 05:53:30;;;;;;;13.43;8.63;;;29.30;96.70;;;;;;5075867;28;20044;-73
2022/08/08 05:56:00;;;;;;;11.32;9.23;;;29.30;96.60;;;;;;5093042;28;20040;-73
2022/08/08 05:58:30;;;;;;;14.32;8.73;;;29.40;96.50;;;;;;5059245;28;20402;-73
2022/08/08 06:01:02;;;;;;;12.70;8.88;;;29.50;96.50;;;;;;5076111;28;20131;-73
2022/08/08 06:03:30;;;;;;;11.82;9.52;;;29.60;96.50;;;;;;5109738;28;20051;-73
2022/08/08 06:06:05;;;;;;;13.15;7.88;;;29.70;96.40;;;;;;5075150;28;20080;-73
2022/08/08 06:08:43;;;;;;;23.90;8.73;;;29.90;96.30;;;;;;5075797;28;20490;-73
2022/08/08 06:11:11;;;;;;;;;;;30.10;95.90;;;;;;5077289;28;20040;-73
2022/08/08 06:13:38;;;;;;;11.10;7.55;;;30.30;95.40;;;;;;5076789;28;19974;-73
2022/08/08 06:16:11;;;;;;;11.80;7.05;;;30.60;95.20;;;;;;5058615;28;20055;-73
2022/08/08 06:19:01;;;;;;;11.88;7.50;;;30.90;94.80;;;;;;5081010;28;20127;-73
2022/08/08 06:21:31;;;;;;;8.55;6.55;;;31.30;94.20;;;;;;5092232;28;20056;-73
2022/08/08 06:24:05;;;;;;;8.43;6.85;;;31.70;93.40;;;;;;5075338;28;20474;-73
2022/08/08 06:26:49;;;;;;;8.82;6.60;;;31.90;92.80;;;;;;5058544;28;20110;-73
2022/08/08 06:29:34;;;;;;;6.88;5.47;;;32.10;92.10;;;;;;5058530;28;20071;-73
2022/08/08 06:32:05;;;;;;;8.95;6.00;;;32.40;91.50;;;;;;5109376;28;20083;-73
2022/08/08 06:34:37;;;;;;;9.52;5.70;;;32.50;90.60;;;;;;5092169;28;20124;-73
2022/08/08 06:37:11;;;;;;;8.82;6.43;;;32.60;90.20;;;;;;5109198;28;20072;-73
2022/08/08 06:39:49;;;;;;;6.35;5.72;;;32.80;89.20;;;;;;5075279;28;20423;-73
2022/08/08 06:42:17;;;;;;;7.70;4.78;;;32.90;88.20;;;;;;5058813;28;20143;-73
2022/08/08 06:44:50;;;;;;;8.95;5.03;;;33.10;87.90;;;;;;5108218;28;20467;-73
2022/08/08 06:47:18;;;;;;;6.70;5.38;;;33.20;86.40;;;;;;5075033;28;20040;-73
2022/08/08 06:49:46;;;;;;;8.23;6.03;;;33.30;86.60;;;;;;5075960;28;20041;-73
2022/08/08 06:52:15;;;;;;;6.43;5.43;;;33.50;86.50;;;;;;5074655;28;20394;-73
2022/08/08 06:54:44;;;;;;;6.93;4.90;;;33.60;85.50;;;;;;5074455;28;20048;-73
2022/08/08 06:57:12;;;;;;;7.53;5.47;;;33.70;85.50;;;;;;5074688;28;20544;-73
2022/08/08 06:59:40;;;;;;;7.18;5.05;;;33.70;85.10;;;;;;5074912;28;20075;-73
2022/08/08 07:02:11;;;;;;;8.27;4.93;;;33.80;84.40;;;;;;5057982;28;20392;-73
2022/08/08 07:04:56;;;;;;;8.52;4.85;;;33.90;83.90;;;;;;5074956;28;20421;-73
2022/08/08 07:07:45;;;;;;;7.38;4.72;;;33.90;83.60;;;;;;5108628;28;20482;-73
2022/08/08 07:10:19;;;;;;;5.13;4.50;;;34.00;83.30;;;;;;5108408;28;20475;-73
2022/08/08 07:13:01;;;;;;;6.28;4.60;;;34.10;81.80;;;;;;5074461;28;20387;-73
2022/08/08 07:15:43;;;;;;;7.78;4.40;;;34.10;80.80;;;;;;5090671;28;20044;-73
2022/08/08 07:18:15;;;;;;;5.57;4.18;;;34.20;80.20;;;;;;5075646;28;20140;-73
2022/08/08 07:20:43;;;;;;;7.05;4.10;;;34.40;79.90;;;;;;5057902;28;20044;-73
2022/08/08 07:23:17;;;;;;;8.65;5.30;;;34.50;79.50;;;;;;5074276;28;20059;-73
2022/08/08 07:25:48;;;;;;;6.50;4.57;;;34.60;78.70;;;;;;5074354;28;20057;-73
2022/08/08 07:28:21;;;;;;;5.72;4.70;;;34.70;77.30;;;;;;5108261;28;20398;-72
2022/08/08 07:30:50;;;;;;;8.60;4.88;;;34.80;77.30;;;;;;5091308;28;20040;-73
2022/08/08 07:33:26;;;;;;;6.20;4.85;;;34.80;76.50;;;;;;5073882;28;20490;-73
2022/08/08 07:35:55;;;;;;;7.07;5.07;;;34.90;76.80;;;;;;5073814;28;20040;-73
2022/08/08 07:38:23;;;;;;;5.68;5.00;;;34.90;76.90;;;;;;5090546;28;20037;-73
2022/08/08 07:40:57;;;;;;;8.05;5.32;;;35.00;76.60;;;;;;5090698;28;20045;-72
2022/08/08 07:43:32;;;;;;;6.82;5.47;;;35.10;76.60;;;;;;5057992;28;20049;-73
2022/08/08 07:46:00;;;;;;;7.28;5.43;;;35.10;77.80;;;;;;5057159;28;20528;-73
2022/08/08 07:48:29;;;;;;;6.97;6.05;;;35.20;78.50;;;;;;5090485;28;20125;-73
2022/08/08 07:50:59;;;;;;;11.95;6.43;;;35.20;78.00;;;;;;5090746;28;20049;-73
2022/08/08 07:53:57;;;;;;;9.25;5.90;;;35.40;78.30;;;;;;5107401;28;20082;-73
2022/08/08 07:56:26;;;;;;;7.15;5.88;;;35.50;77.90;;;;;;5072578;28;20044;-72
2022/08/08 07:58:54;;;;;;;8.77;6.00;;;35.50;76.60;;;;;;5073729;28;20048;-73
2022/08/08 08:01:26;;;;;;;8.70;5.40;;;35.40;75.60;;;;;;5106942;28;20052;-73
2022/08/08 08:04:05;;;;;;;7.72;6.60;;;35.50;75.30;;;;;;5090249;28;20049;-73
2022/08/08 08:06:33;;;;;;;7.55;5.63;;;35.50;75.80;;;;;;5056865;28;20079;-73
2022/08/08 08:09:07;;;;;;;10.95;6.07;;;35.60;75.50;;;;;;5107397;28;20086;-73
2022/08/08 08:11:41;;;;;;;7.25;5.55;;;35.70;75.30;;;;;;5073423;28;20049;-73
2022/08/08 08:14:17;;;;;;;8.45;6.15;;;35.80;75.10;;;;;;5106789;28;20386;-73
2022/08/08 08:16:47;;;;;;;7.95;5.03;;;35.90;74.40;;;;;;5056689;28;20044;-73
2022/08/08 08:19:16;;;;;;;7.80;5.65;;;36.00;73.50;;;;;;5056347;28;20041;-73
2022/08/08 08:21:46;;;;;;;7.63;5.45;;;35.90;73.40;;;;;;5089903;28;20044;-73
2022/08/08 08:24:31;;;;;;;8.43;5.93;;;35.80;74.00;;;;;;5056891;28;20433;-73
2022/08/08 08:27:00;;;;;;;7.63;5.43;;;35.70;74.50;;;;;;5072596;28;20055;-73
2022/08/08 08:29:28;;;;;;;15.52;6.13;;;35.80;75.00;;;;;;5072866;28;20040;-73
2022/08/08 08:31:56;;;;;;;9.10;6.18;;;35.90;74.30;;;;;;5074359;28;20040;-72
2022/08/08 08:34:26;;;;;;;7.60;5.60;;;35.90;73.30;;;;;;5072999;28;20055;-73
2022/08/08 08:36:54;;;;;;;6.45;5.32;;;35.50;73.10;;;;;;5106538;28;20101;-73
2022/08/08 08:39:22;;;;;;;8.70;5.38;;;35.10;73.40;;;;;;5106379;28;20526;-72
2022/08/08 08:41:52;;;;;;;7.63;5.38;;;35.00;73.30;;;;;;5055899;28;20066;-72
2022/08/08 08:44:20;;;;;;;8.30;5.93;;;35.10;73.00;;;;;;5089403;28;20040;-72
2022/08/08 08:46:48;;;;;;;8.00;5.97;;;35.10;72.30;;;;;;5106655;28;20062;-72
2022/08/08 08:49:16;;;;;;;5.53;4.18;;;35.10;72.50;;;;;;5089371;28;20044;-72
2022/08/08 08:51:45;;;;;;;6.05;4.95;;;35.00;71.80;;;;;;5072544;28;20040;-72
2022/08/08 08:54:16;;;;;;;6.20;5.13;;;34.90;72.30;;;;;;5089228;28;20540;-72
2022/08/08 08:56:46;;;;;;;7.95;5.28;;;34.90;72.80;;;;;;5106127;28;20041;-72
2022/08/08 08:59:17;;;;;;;7.28;5.38;;;34.90;73.20;;;;;;5056319;28;20479;-72
2022/08/08 09:01:54;;;;;;;6.65;4.65;;;34.90;73.10;;;;;;5072517;28;20056;-72
2022/08/08 09:04:32;;;;;;;6.85;4.70;;;35.00;72.50;;;;;;5056071;28;20047;-72
2022/08/08 09:07:03;;;;;;;7.40;6.15;;;35.00;72.80;;;;;;5071375;28;20056;-73
2022/08/08 09:09:36;;;;;;;7.97;6.07;;;35.00;73.30;;;;;;5088980;28;20127;-72
2022/08/08 09:12:17;;;;;;;6.97;5.47;;;34.80;74.10;;;;;;5087706;28;20528;-72
2022/08/08 09:14:46;;;;;;;8.50;5.72;;;34.90;74.60;;;;;;5089171;28;20032;-73
2022/08/08 09:17:18;;;;;;;6.95;5.82;;;34.80;74.20;;;;;;5055916;28;20060;-72
2022/08/08 09:19:56;;;;;;;8.85;5.93;;;34.80;73.90;;;;;;5106236;28;20047;-72
2022/08/08 09:22:25;;;;;;;9.00;6.35;;;34.60;73.80;;;;;;5055646;28;20052;-73
2022/08/08 09:24:55;;;;;;;7.80;6.00;;;34.50;73.50;;;;;;5072135;28;20105;-73
2022/08/08 09:27:25;;;;;;;7.95;5.47;;;34.50;74.00;;;;;;5073420;28;20056;-72
2022/08/08 09:30:08;;;;;;;7.57;5.70;;;34.40;73.70;;;;;;5088313;28;20045;-73
2022/08/08 09:32:41;;;;;;;7.00;5.60;;;34.30;74.10;;;;;;5055496;28;20056;-72
2022/08/08 09:35:13;;;;;;;8.00;5.75;;;34.40;74.20;;;;;;5088892;28;20040;-72
2022/08/08 09:37:51;;;;;;;9.85;5.63;;;34.50;73.40;;;;;;5071863;28;20446;-73
2022/08/08 09:40:27;;;;;;;8.75;6.45;;;34.70;73.10;;;;;;5087871;28;20505;-73
2022/08/08 09:43:28;;;;;;;10.57;6.00;;;34.80;73.10;;;;;;5055706;28;20049;-73
2022/08/08 09:46:01;;;;;;;8.27;4.93;;;34.90;73.10;;;;;;5072009;28;20040;-73
2022/08/08 09:48:34;;;;;;;6.50;5.55;;;35.00;73.70;;;;;;5088651;28;20048;-73
2022/08/08 09:51:03;;;;;;;7.25;5.53;;;35.10;73.20;;;;;;5088544;28;20048;-73
2022/08/08 09:54:00;;;;;;;9.05;5.93;;;35.20;73.30;;;;;;5071926;28;20500;-72
2022/08/08 09:56:34;;;;;;;6.90;5.18;;;35.20;73.30;;;;;;5055257;28;20386;-73
2022/08/08 09:59:05;;;;;;;9.18;6.22;;;35.40;73.10;;;;;;5071943;28;20045;-72
2022/08/08 10:01:45;;;;;;;6.90;5.75;;;35.40;73.30;;;;;;5055302;28;20048;-72
2022/08/08 10:04:14;;;;;;;7.68;6.22;;;35.50;72.90;;;;;;5072373;28;20037;-72
2022/08/08 10:06:46;;;;;;;8.32;5.70;;;35.70;72.80;;;;;;5071885;28;20040;-72
2022/08/08 10:09:14;;;;;;;7.45;5.85;;;35.80;72.80;;;;;;5105525;28;20478;-72
2022/08/08 10:11:47;;;;;;;9.57;6.18;;;35.90;72.40;;;;;;5057870;28;20086;-76
2022/08/08 10:14:15;;;;;;;8.07;5.28;;;36.10;71.90;;;;;;5061489;28;20052;-73
2022/08/08 10:16:43;;;;;;;5.72;5.03;;;36.20;71.70;;;;;;5068045;28;20156;-72
2022/08/08 10:19:11;;;;;;;7.30;5.45;;;36.30;70.10;;;;;;5069492;28;20144;-72
2022/08/08 10:21:39;;;;;;;7.35;5.25;;;36.40;70.30;;;;;;5085649;28;20036;-76
2022/08/08 10:24:10;;;;;;;8.65;6.10;;;36.50;70.10;;;;;;5056953;28;20371;-73
2022/08/08 10:26:48;;;;;;;6.53;5.28;;;36.50;70.20;;;;;;5092133;28;20080;-72
2022/08/08 10:29:20;;;;;;;9.55;6.82;;;36.50;69.10;;;;;;5075349;28;20040;-72
2022/08/08 10:34:48;;;;;;;10.18;5.78;;;36.00;70.40;;;;;;5076201;28;20041;-73
2022/08/08 10:37:24;;;;;;;8.88;5.07;;;35.80;70.80;;;;;;5076455;28;20043;-72
2022/08/08 10:39:54;;;;;;;6.95;5.32;;;35.60;70.30;;;;;;5104873;28;20037;-73
2022/08/08 10:42:30;;;;;;;7.90;5.70;;;35.60;69.60;;;;;;5084960;28;20049;-71
2022/08/08 10:45:00;;;;;;;7.10;5.43;;;35.60;70.40;;;;;;5082315;28;20048;-71
2022/08/08 10:47:29;;;;;;;6.47;5.28;;;35.60;69.00;;;;;;5074311;28;20040;-70
2022/08/08 10:50:02;;;;;;;6.15;5.10;;;35.50;68.50;;;;;;5063474;28;20144;-71
2022/08/08 10:52:33;;;;;;;7.43;5.10;;;35.50;67.90;;;;;;5074789;28;20433;-70
2022/08/08 10:55:06;;;;;;;7.00;5.75;;;35.50;67.80;;;;;;5057190;28;20044;-70
2022/08/08 10:57:46;;;;;;;7.03;4.80;;;35.50;67.40;;;;;;5057237;28;20494;-71
2022/08/08 11:00:25;;;;;;;6.57;5.18;;;35.60;67.00;;;;;;5058058;28;20048;-71
2022/08/08 11:02:54;;;;;;;6.70;5.60;;;35.70;66.80;;;;;;5058288;28;20056;-71
2022/08/08 11:05:23;;;;;;;6.30;5.70;;;35.90;66.80;;;;;;5074737;28;20040;-71
2022/08/08 11:07:56;;;;;;;7.32;5.00;;;36.10;66.70;;;;;;5074431;28;20040;-72
2022/08/08 11:10:24;;;;;;;7.35;5.18;;;36.30;66.70;;;;;;5058391;28;20056;-71
2022/08/08 11:12:59;;;;;;;7.03;5.15;;;36.40;66.10;;;;;;5074680;28;20111;-71
2022/08/08 11:15:47;;;;;;;7.65;5.43;;;36.50;65.80;;;;;;5092169;28;20036;-71
2022/08/08 11:18:16;;;;;;;8.88;6.25;;;36.70;65.00;;;;;;5073352;28;20045;-72
2022/08/08 11:20:44;;;;;;;7.72;6.20;;;36.50;65.90;;;;;;5072421;28;20045;-72
2022/08/08 11:23:15;;;;;;;10.43;6.95;;;36.30;67.50;;;;;;5074416;28;20041;-72
2022/08/08 11:25:44;;;;;;;7.38;5.35;;;36.30;67.60;;;;;;5074082;28;20056;-72
2022/08/08 11:28:13;;;;;;;9.18;6.10;;;36.00;67.60;;;;;;5074302;28;20047;-72
2022/08/08 11:30:42;;;;;;;8.13;6.45;;;35.80;68.10;;;;;;5057608;28;20048;-72
2022/08/08 11:33:10;;;;;;;8.23;6.32;;;35.70;67.70;;;;;;5073873;28;20477;-72
2022/08/08 11:35:41;;;;;;;9.65;5.78;;;35.70;67.90;;;;;;5074185;28;20044;-71
2022/08/08 11:38:11;;;;;;;7.57;5.72;;;35.60;67.80;;;;;;5074208;28;20102;-72
2022/08/08 11:40:40;;;;;;;8.30;6.15;;;35.60;67.60;;;;;;5057669;28;20053;-71
2022/08/08 11:43:09;;;;;;;9.02;5.90;;;35.50;67.80;;;;;;5075071;28;20379;-72
2022/08/08 11:45:41;;;;;;;9.10;5.85;;;35.50;68.00;;;;;;5073880;28;20395;-72
2022/08/08 11:48:21;;;;;;;8.57;6.15;;;35.40;67.80;;;;;;5073891;28;20053;-71
2022/08/08 11:50:50;;;;;;;8.20;5.80;;;35.30;67.80;;;;;;5075000;28;20452;-72
2022/08/08 11:53:20;;;;;;;7.13;5.88;;;35.20;67.80;;;;;;5073849;28;20048;-72
2022/08/08 11:55:51;;;;;;;8.60;6.00;;;35.30;68.30;;;;;;5074846;28;20494;-71
2022/08/08 11:58:19;;;;;;;6.78;5.05;;;35.30;68.00;;;;;;5075001;28;20062;-71
2022/08/08 12:00:49;;;;;;;7.70;5.93;;;35.30;67.60;;;;;;5073975;28;20055;-72
2022/08/08 12:03:22;;;;;;;6.90;5.07;;;35.20;67.70;;;;;;5072644;28;20449;-71
2022/08/08 12:05:52;;;;;;;7.80;5.30;;;35.10;67.70;;;;;;5099393;28;20429;-72
2022/08/08 12:08:35;;;;;;;6.57;5.45;;;35.10;68.10;;;;;;5055525;28;20091;-72
2022/08/08 12:11:09;;;;;;;6.18;5.13;;;35.20;68.00;;;;;;5099617;28;20086;-72
2022/08/08 12:13:36;;;;;;;6.53;5.72;;;35.10;67.50;;;;;;5072461;28;20386;-72
2022/08/08 12:16:10;;;;;;;8.13;5.50;;;35.20;67.80;;;;;;5095986;28;20057;-72
2022/08/08 12:18:48;;;;;;;5.75;5.00;;;35.30;68.20;;;;;;5072739;28;20070;-73
2022/08/08 12:21:31;;;;;;;8.18;4.93;;;35.30;67.70;;;;;;5072454;28;20185;-73
2022/08/08 12:24:20;;;;;;;5.90;4.63;;;34.90;70.20;;;;;;5074805;28;20052;-73
2022/08/08 12:26:53;;;;;;;5.80;4.55;;;34.50;71.20;;;;;;5084124;28;20066;-74
2022/08/08 12:29:32;;;;;;;7.22;4.72;;;34.10;71.90;;;;;;5082814;28;20036;-73
2022/08/08 12:32:10;;;;;;;6.22;4.55;;;34.10;72.00;;;;;;5082572;28;20048;-73
2022/08/08 12:35:17;;;;;;;6.70;4.57;;;34.20;71.80;;;;;;5078926;28;20048;-74
2022/08/08 12:37:59;;;;;;;7.65;4.93;;;34.30;71.20;;;;;;5056165;28;20047;-72
2022/08/08 12:40:37;;;;;;;7.30;4.82;;;33.90;70.70;;;;;;5077532;28;20032;-74
2022/08/08 12:43:04;;;;;;;6.45;4.88;;;34.00;71.10;;;;;;5082504;28;20036;-73
2022/08/08 12:45:35;;;;;;;7.50;4.88;;;34.10;71.00;;;;;;5081633;28;20042;-75
2022/08/08 12:48:05;;;;;;;6.70;5.38;;;34.10;70.70;;;;;;5099743;28;20063;-73
2022/08/08 12:50:43;;;;;;;6.15;5.15;;;34.30;70.70;;;;;;5082156;28;20036;-73
2022/08/08 12:53:27;;;;;;;9.60;4.93;;;34.40;70.70;;;;;;5094138;28;20041;-72
2022/08/08 12:56:03;;;;;;;;;;;34.50;71.80;;;;;;5095826;28;20136;-73
2022/08/08 12:58:50;;;;;;;8.63;6.32;;;34.50;73.90;;;;;;5079496;28;19928;-72
2022/08/08 13:01:18;;;;;;;8.73;6.57;;;34.40;74.40;;;;;;5083934;28;20044;-74
2022/08/08 13:03:48;;;;;;;9.07;6.38;;;34.40;75.40;;;;;;5081647;28;20102;-71
2022/08/08 13:06:18;;;;;;;10.85;6.47;;;34.40;74.10;;;;;;5073240;28;20048;-73
2022/08/08 13:08:51;;;;;;;9.15;6.88;;;34.40;74.90;;;;;;5074614;28;20126;-74
2022/08/08 13:11:26;;;;;;;9.55;6.32;;;34.30;75.40;;;;;;5115221;27;20032;-74
2022/08/08 13:13:56;;;;;;;;;;;34.20;74.90;;;;;;5097849;28;20449;-72
2022/08/08 13:16:25;;;;;;;9.27;6.63;;;34.10;75.00;;;;;;5064257;28;20370;-72
2022/08/08 13:18:59;;;;;;;11.88;7.32;;;34.00;75.50;;;;;;5065655;28;20052;-71
2022/08/08 13:21:32;;;;;;;9.73;6.53;;;33.90;75.80;;;;;;5096016;28;20041;-73
2022/08/08 13:24:00;;;;;;;8.55;6.47;;;33.80;75.60;;;;;;5079077;28;20044;-73
2022/08/08 13:26:32;;;;;;;8.85;6.40;;;33.90;75.60;;;;;;5061506;28;20053;-73
2022/08/08 13:29:14;;;;;;;8.88;6.43;;;33.90;76.10;;;;;;5082981;28;20562;-73
2022/08/08 13:31:47;;;;;;;7.85;6.28;;;33.90;76.70;;;;;;5066035;28;20498;-74
2022/08/08 13:34:19;;;;;;;9.07;6.05;;;33.80;76.70;;;;;;5080217;28;20044;-73